Time;durP1;ratioP1;P1;durP2;ratioP2;P2;SDS_P1;SDS_P2;PMS_P1;PMS_P2;Temp;Humidity;BMP_temperature;BMP_pressure;BME280_temperature;BME280_humidity;BME280_pressure;Samples;Min_cycle;Max_cycle;Signal;HPM_P1;HPM_P2
2022/03/06 00:00:36;;;;;;;16.40;14.68;;;2.70;30.90;;;;;;20523;6834;328354;-89
2022/03/06 00:03:04;;;;;;;15.60;14.10;;;2.80;31.60;;;;;;20550;6834;326176;-89
2022/03/06 00:05:29;;;;;;;15.45;13.85;;;3.10;31.40;;;;;;20538;6834;311763;-89
2022/03/06 00:07:56;;;;;;;14.00;12.57;;;3.40;30.90;;;;;;20767;6834;121735;-88
2022/03/06 00:10:21;;;;;;;14.73;13.30;;;3.30;31.00;;;;;;20542;6834;306711;-89
2022/03/06 00:12:46;;;;;;;15.33;11.67;;;3.30;31.10;;;;;;20747;6834;118282;-88
2022/03/06 00:15:12;;;;;;;15.20;13.70;;;3.20;30.80;;;;;;20561;6834;281861;-89
2022/03/06 00:17:37;;;;;;;13.80;12.40;;;3.20;31.20;;;;;;20775;6834;117829;-89
2022/03/06 00:20:08;;;;;;;13.00;11.57;;;3.10;31.00;;;;;;20766;6834;117565;-87
2022/03/06 00:22:29;;;;;;;11.63;10.30;;;2.90;31.10;;;;;;20748;6834;116407;-89
2022/03/06 00:24:56;;;;;;;13.97;12.57;;;2.70;31.30;;;;;;20515;6834;303854;-89
2022/03/06 00:27:22;;;;;;;13.00;11.77;;;2.80;31.60;;;;;;20758;6834;118162;-89
2022/03/06 00:29:49;;;;;;;14.40;11.60;;;2.80;31.60;;;;;;20766;6834;116318;-89
2022/03/06 00:32:14;;;;;;;15.20;13.70;;;2.60;31.50;;;;;;20537;6834;306300;-89
2022/03/06 00:34:42;;;;;;;13.57;12.18;;;2.80;32.10;;;;;;20743;6834;117485;-88
2022/03/06 00:37:06;;;;;;;15.45;13.95;;;2.80;31.70;;;;;;20549;6834;306610;-89
2022/03/06 00:39:33;;;;;;;13.30;11.90;;;2.90;31.90;;;;;;20774;6834;116942;-88
2022/03/06 00:41:57;;;;;;;12.93;11.57;;;2.90;31.70;;;;;;20770;6834;117923;-88
2022/03/06 00:44:23;;;;;;;12.83;11.43;;;2.70;31.70;;;;;;20769;6834;117983;-88
2022/03/06 00:46:51;;;;;;;13.55;12.00;;;2.50;31.30;;;;;;20745;6834;117400;-87
2022/03/06 00:49:17;;;;;;;13.70;11.43;;;2.40;32.10;;;;;;20766;6834;116712;-88
2022/03/06 00:51:42;;;;;;;14.82;13.43;;;2.30;32.10;;;;;;20536;6834;281794;-88
2022/03/06 00:54:09;;;;;;;15.73;14.20;;;2.40;32.70;;;;;;20551;6834;311592;-88
2022/03/06 00:56:36;;;;;;;16.30;14.70;;;2.80;32.40;;;;;;20546;6834;281674;-88
2022/03/06 00:59:03;;;;;;;16.15;14.57;;;3.10;31.90;;;;;;20539;6832;299012;-88
2022/03/06 01:01:29;;;;;;;15.85;14.25;;;3.30;31.60;;;;;;20552;6833;342302;-88
2022/03/06 01:03:54;;;;;;;15.60;14.20;;;3.50;31.40;;;;;;20521;6833;312848;-87
2022/03/06 01:06:21;;;;;;;15.77;14.23;;;3.60;31.10;;;;;;20546;6833;307195;-88
2022/03/06 01:08:47;;;;;;;16.03;14.43;;;3.60;31.00;;;;;;20521;6833;307152;-88
2022/03/06 01:11:12;;;;;;;16.00;14.50;;;3.70;31.10;;;;;;20536;6834;278673;-88
2022/03/06 01:13:38;;;;;;;13.20;11.90;;;3.70;30.90;;;;;;20765;6834;117761;-88
2022/03/06 01:16:03;;;;;;;15.45;13.95;;;3.40;30.80;;;;;;20305;6834;328379;-88
2022/03/06 01:18:29;;;;;;;16.52;14.93;;;3.30;31.40;;;;;;20411;6834;340800;-88
2022/03/06 01:20:55;;;;;;;15.82;14.32;;;3.60;31.40;;;;;;20529;6834;278138;-88
2022/03/06 01:23:21;;;;;;;14.50;13.00;;;3.60;31.40;;;;;;20764;6834;117885;-88
2022/03/06 01:25:46;;;;;;;15.70;12.40;;;3.30;31.10;;;;;;20823;6834;116376;-87
2022/03/06 01:28:13;;;;;;;15.73;12.50;;;3.00;31.50;;;;;;20801;6834;116585;-89
2022/03/06 01:30:39;;;;;;;16.95;15.15;;;2.70;32.80;;;;;;20500;6834;278003;-88
2022/03/06 01:33:05;;;;;;;14.03;12.27;;;2.70;32.80;;;;;;20758;6834;118431;-88
2022/03/06 01:35:31;;;;;;;17.10;15.50;;;2.70;32.60;;;;;;20537;6834;307550;-88
2022/03/06 01:37:58;;;;;;;16.80;15.02;;;3.00;33.60;;;;;;20540;6834;307287;-88
2022/03/06 01:40:25;;;;;;;16.92;15.23;;;2.90;33.00;;;;;;20544;6834;308847;-89
2022/03/06 01:42:50;;;;;;;16.37;14.77;;;3.20;32.90;;;;;;20557;6834;277731;-90
2022/03/06 01:45:17;;;;;;;14.17;12.70;;;3.30;32.60;;;;;;20735;6834;117429;-89
2022/03/06 01:47:43;;;;;;;17.03;14.60;;;3.20;32.40;;;;;;20527;6834;306639;-90
2022/03/06 01:50:09;;;;;;;16.77;15.00;;;3.10;33.00;;;;;;20547;6834;306361;-90
2022/03/06 01:52:37;;;;;;;16.50;14.80;;;3.20;33.00;;;;;;20585;6834;279203;-90
2022/03/06 01:55:02;;;;;;;14.43;12.33;;;3.40;32.90;;;;;;20824;6834;117567;-90
2022/03/06 01:57:28;;;;;;;16.27;14.57;;;3.10;32.60;;;;;;20609;6834;276659;-89
2022/03/06 01:59:53;;;;;;;13.93;12.00;;;3.10;33.30;;;;;;20795;6834;118237;-88
2022/03/06 02:02:20;;;;;;;14.82;12.07;;;2.50;33.20;;;;;;20759;6834;117393;-90
2022/03/06 02:04:46;;;;;;;18.03;14.93;;;2.60;34.10;;;;;;20524;6834;280208;-91
2022/03/06 02:07:13;;;;;;;16.77;14.97;;;2.50;34.00;;;;;;20539;6834;307532;-89
2022/03/06 02:09:38;;;;;;;16.57;14.87;;;2.80;34.10;;;;;;20541;6834;310973;-89
2022/03/06 02:12:24;;;;;;;13.93;12.43;;;3.00;33.90;;;;;;20742;6832;120169;-90
2022/03/06 02:14:50;;;;;;;16.65;14.95;;;2.90;34.00;;;;;;20500;6833;308532;-89
2022/03/06 02:17:16;;;;;;;14.63;13.03;;;2.90;34.00;;;;;;20734;6833;119392;-89
2022/03/06 02:19:52;;;;;;;13.18;11.80;;;2.70;33.70;;;;;;20740;6833;117344;-89
2022/03/06 02:22:19;;;;;;;15.07;12.03;;;2.40;33.80;;;;;;20738;6834;117301;-89
2022/03/06 02:24:45;;;;;;;13.17;11.23;;;2.20;34.00;;;;;;20718;6834;117423;-89
2022/03/06 02:27:10;;;;;;;16.42;14.82;;;2.00;34.10;;;;;;20524;6834;279380;-89
2022/03/06 02:29:36;;;;;;;13.45;12.05;;;2.10;35.00;;;;;;20751;6834;117897;-89
2022/03/06 02:32:01;;;;;;;16.80;15.10;;;2.10;34.70;;;;;;20503;6834;335448;-89
2022/03/06 02:34:27;;;;;;;17.48;15.77;;;2.20;35.10;;;;;;20523;6834;302531;-89
2022/03/06 02:36:52;;;;;;;17.42;15.52;;;2.50;34.90;;;;;;20521;6834;303317;-89
2022/03/06 02:39:18;;;;;;;15.80;13.27;;;2.70;34.60;;;;;;20757;6834;119088;-89
2022/03/06 02:41:44;;;;;;;16.35;14.80;;;2.50;34.10;;;;;;20527;6834;279840;-90
2022/03/06 02:44:09;;;;;;;17.05;15.27;;;2.50;34.60;;;;;;20540;6836;299878;-89
2022/03/06 02:46:35;;;;;;;16.85;15.23;;;2.70;35.30;;;;;;20542;6836;277591;-89
2022/03/06 02:49:01;;;;;;;14.68;12.65;;;2.70;34.10;;;;;;20737;6836;120973;-89
2022/03/06 02:51:27;;;;;;;14.90;12.70;;;2.70;34.10;;;;;;20758;6834;117391;-89
2022/03/06 02:53:52;;;;;;;15.63;13.00;;;2.40;34.30;;;;;;20814;6819;117451;-89
2022/03/06 02:56:18;;;;;;;16.87;15.18;;;2.10;34.50;;;;;;20593;6834;306878;-89
2022/03/06 02:58:43;;;;;;;16.85;13.75;;;2.20;35.30;;;;;;20806;6819;117332;-89
2022/03/06 03:01:10;;;;;;;16.30;13.65;;;2.00;35.40;;;;;;20755;6834;117741;-89
2022/03/06 03:03:39;;;;;;;17.83;16.03;;;1.90;34.90;;;;;;20540;6834;294917;-89
2022/03/06 03:06:04;;;;;;;18.00;16.20;;;2.10;35.40;;;;;;20538;6835;309994;-89
2022/03/06 03:08:29;;;;;;;16.25;13.77;;;2.40;35.20;;;;;;20746;6835;124165;-89
2022/03/06 03:10:56;;;;;;;17.73;13.35;;;2.10;35.60;;;;;;20749;6835;117960;-89
2022/03/06 03:13:21;;;;;;;16.47;13.07;;;2.10;34.90;;;;;;20752;6835;117479;-89
2022/03/06 03:15:47;;;;;;;15.25;12.02;;;1.90;35.10;;;;;;20751;6835;116621;-89
2022/03/06 03:18:14;;;;;;;15.35;12.70;;;1.70;35.20;;;;;;20742;6835;118008;-89
2022/03/06 03:20:41;;;;;;;17.75;15.85;;;1.60;35.40;;;;;;20513;6835;336342;-89
2022/03/06 03:23:06;;;;;;;17.63;15.77;;;1.70;36.10;;;;;;20539;6833;278126;-89
2022/03/06 03:25:32;;;;;;;17.55;15.85;;;2.10;35.90;;;;;;20539;6834;308474;-89
2022/03/06 03:27:57;;;;;;;17.70;15.95;;;2.40;35.50;;;;;;20549;6834;343968;-89
2022/03/06 03:30:24;;;;;;;15.33;13.27;;;2.60;35.10;;;;;;20767;6834;123616;-89
2022/03/06 03:32:51;;;;;;;14.80;13.10;;;2.10;35.60;;;;;;20739;6834;121660;-89
2022/03/06 03:35:16;;;;;;;15.20;12.40;;;2.10;34.90;;;;;;20761;6834;117841;-89
2022/03/06 03:37:42;;;;;;;15.20;11.73;;;1.80;35.10;;;;;;20745;6834;117437;-89
2022/03/06 03:40:08;;;;;;;15.73;12.60;;;1.60;35.40;;;;;;20749;6834;118299;-89
2022/03/06 03:42:33;;;;;;;14.90;12.60;;;1.40;35.50;;;;;;20749;6834;116603;-91
2022/03/06 03:45:00;;;;;;;16.43;14.73;;;1.30;35.70;;;;;;20534;6834;278071;-89
2022/03/06 03:47:25;;;;;;;22.33;16.93;;;1.50;36.80;;;;;;20749;6834;118160;-89
2022/03/06 03:49:52;;;;;;;16.33;13.48;;;1.60;36.50;;;;;;20749;6834;117681;-90
2022/03/06 03:52:18;;;;;;;16.77;15.07;;;1.50;36.40;;;;;;20544;6834;278163;-89
2022/03/06 03:54:44;;;;;;;15.88;12.57;;;1.70;36.70;;;;;;20725;6834;123991;-89
2022/03/06 03:57:10;;;;;;;14.57;11.97;;;1.70;36.60;;;;;;20753;6834;117703;-88
2022/03/06 03:59:35;;;;;;;16.58;14.90;;;1.60;36.60;;;;;;20545;6834;282473;-87
2022/03/06 04:02:01;;;;;;;17.33;15.63;;;1.80;37.30;;;;;;20543;6834;307794;-88
2022/03/06 04:04:28;;;;;;;17.53;15.73;;;2.10;36.80;;;;;;20549;6834;306441;-88
2022/03/06 04:06:53;;;;;;;17.00;13.73;;;2.40;36.30;;;;;;20717;6834;122825;-87
2022/03/06 04:09:19;;;;;;;16.37;14.68;;;2.40;35.90;;;;;;20554;6834;282437;-89
2022/03/06 04:11:44;;;;;;;15.33;13.37;;;2.40;36.10;;;;;;20756;6834;117321;-87
2022/03/06 04:14:11;;;;;;;16.25;14.65;;;2.20;35.80;;;;;;20542;6834;307469;-88
2022/03/06 04:16:37;;;;;;;13.83;12.37;;;2.20;36.30;;;;;;20744;6834;121792;-88
2022/03/06 04:19:04;;;;;;;13.10;11.70;;;2.10;36.00;;;;;;20762;6834;118519;-88
2022/03/06 04:21:30;;;;;;;16.57;14.90;;;1.90;36.20;;;;;;20526;6834;303377;-88
2022/03/06 04:23:55;;;;;;;16.33;14.70;;;2.00;37.00;;;;;;20529;6834;280172;-88
2022/03/06 04:26:21;;;;;;;16.95;15.23;;;2.30;36.90;;;;;;20547;6834;307071;-88
2022/03/06 04:28:46;;;;;;;14.13;12.70;;;2.50;36.50;;;;;;20739;6834;122323;-88
2022/03/06 04:31:13;;;;;;;15.85;14.25;;;2.30;36.60;;;;;;20536;6834;282830;-88
2022/03/06 04:33:40;;;;;;;15.10;11.90;;;2.30;36.60;;;;;;20747;6832;117349;-87
2022/03/06 04:36:05;;;;;;;16.77;12.20;;;2.20;36.40;;;;;;20831;6833;116428;-88
2022/03/06 04:38:41;;;;;;;;;;;;;;;;;;;;;
2022/03/06 04:41:08;;;;;;;16.55;14.95;;;1.70;36.80;;;;;;20275;6721;336475;-92
2022/03/06 04:43:53;;;;;;;;;;;;;;;;;;;;;
2022/03/06 05:11:13;;;;;;;15.23;12.83;;;3.30;35.60;;;;;;21456;6522;128505;-91
2022/03/06 05:13:39;;;;;;;13.60;12.20;;;2.90;35.40;;;;;;20901;6802;119221;-92
2022/03/06 05:16:05;;;;;;;13.17;11.23;;;2.50;35.90;;;;;;20895;6802;118359;-93
2022/03/06 05:18:30;;;;;;;16.33;14.67;;;2.20;36.30;;;;;;20675;6797;324978;-92
2022/03/06 05:20:56;;;;;;;16.55;14.95;;;2.20;37.20;;;;;;20444;6856;429299;-91
2022/03/06 05:23:21;;;;;;;13.60;12.20;;;2.50;37.10;;;;;;20732;6853;120225;-91
2022/03/06 05:25:47;;;;;;;16.50;14.90;;;2.40;36.60;;;;;;20557;6843;282672;-92
2022/03/06 05:28:12;;;;;;;17.07;15.37;;;2.40;36.90;;;;;;20538;6843;277939;-92
2022/03/06 05:30:38;;;;;;;14.82;12.93;;;2.70;36.80;;;;;;20769;6846;117509;-92
2022/03/06 05:33:13;;;;;;;12.93;11.53;;;2.50;36.50;;;;;;20719;6844;117428;-89
2022/03/06 05:35:39;;;;;;;14.80;11.70;;;2.30;36.80;;;;;;20729;6844;117425;-90
2022/03/06 05:38:07;;;;;;;16.80;15.10;;;2.00;37.60;;;;;;20524;6846;278289;-90
2022/03/06 05:40:33;;;;;;;39.10;31.90;;;2.00;37.90;;;;;;20721;6846;119742;-89
2022/03/06 05:42:59;;;;;;;16.47;12.80;;;2.00;37.30;;;;;;20729;6848;117385;-90
2022/03/06 05:45:24;;;;;;;14.25;12.55;;;1.90;37.40;;;;;;20750;6848;118418;-89
2022/03/06 05:47:50;;;;;;;13.15;11.60;;;1.70;37.50;;;;;;20733;6853;117470;-90
2022/03/06 05:50:15;;;;;;;13.50;12.10;;;1.50;37.50;;;;;;20723;6853;119466;-90
2022/03/06 05:52:41;;;;;;;16.17;14.53;;;1.40;37.60;;;;;;20525;6848;278599;-90
2022/03/06 05:55:07;;;;;;;17.33;15.57;;;1.50;39.10;;;;;;20474;6866;309192;-89
2022/03/06 05:57:33;;;;;;;17.00;15.30;;;1.90;38.30;;;;;;20475;6867;279414;-89
2022/03/06 05:59:58;;;;;;;17.45;15.68;;;2.30;37.80;;;;;;20490;6855;279007;-89
2022/03/06 06:02:24;;;;;;;17.07;15.57;;;2.50;37.40;;;;;;20531;6848;309123;-89
2022/03/06 06:04:49;;;;;;;14.40;12.90;;;2.60;37.00;;;;;;20658;6862;120409;-89
2022/03/06 06:07:15;;;;;;;16.75;15.10;;;2.50;36.80;;;;;;20486;6857;309543;-89
2022/03/06 06:09:40;;;;;;;17.00;15.20;;;2.40;37.10;;;;;;20510;6850;308797;-89
2022/03/06 06:12:07;;;;;;;13.97;12.13;;;2.50;37.00;;;;;;20711;6850;117489;-89
2022/03/06 06:14:36;;;;;;;12.47;11.13;;;2.50;37.00;;;;;;20666;6864;117412;-90
2022/03/06 06:17:01;;;;;;;16.53;14.57;;;2.20;36.90;;;;;;19460;7188;321065;-89
2022/03/06 06:19:27;;;;;;;14.90;12.70;;;2.20;37.60;;;;;;20624;6835;117467;-90
2022/03/06 06:21:52;;;;;;;17.25;12.85;;;2.20;37.50;;;;;;20718;6855;119643;-90
2022/03/06 06:24:18;;;;;;;17.10;15.43;;;1.90;37.50;;;;;;20479;6868;308739;-89
2022/03/06 06:26:45;;;;;;;16.07;13.13;;;2.10;38.00;;;;;;20687;6848;120125;-90
2022/03/06 06:29:19;;;;;;;;;;;;;;;;;;;;;
2022/03/06 06:31:45;;;;;;;15.43;12.73;;;2.20;38.10;;;;;;20345;6798;70322;-88
2022/03/06 06:34:47;;;;;;;14.80;13.17;;;2.20;37.70;;;;;;20517;6757;116885;-89
2022/03/06 06:37:56;;;;;;;15.20;13.40;;;2.20;38.20;;;;;;21259;6515;67618;31
2022/03/06 06:40:21;;;;;;;13.27;11.73;;;2.20;38.10;;;;;;20827;6832;120995;31
2022/03/06 06:42:47;;;;;;;15.27;11.97;;;2.20;38.20;;;;;;20794;6826;118311;31
2022/03/06 06:45:16;;;;;;;16.45;14.85;;;2.10;38.20;;;;;;20598;6826;312790;31
2022/03/06 06:47:41;;;;;;;15.23;12.93;;;2.50;38.40;;;;;;20790;6841;117007;31
2022/03/06 06:50:07;;;;;;;17.90;13.20;;;2.70;38.00;;;;;;20792;6841;117112;31
2022/03/06 06:52:36;;;;;;;17.43;15.73;;;2.60;37.80;;;;;;20568;6841;326935;31
2022/03/06 06:55:01;;;;;;;18.10;16.40;;;2.90;37.70;;;;;;20578;6841;337802;31
2022/03/06 06:57:37;;;;;;;;;;;;;;;;;;;;;
2022/03/06 07:00:37;;;;;;;17.07;15.43;;;3.50;36.50;;;;;;20416;6771;305434;-94
2022/03/06 07:03:00;;;;;;;;;;;;;;;;;;;;;
2022/03/06 07:05:27;;;;;;;17.03;15.40;;;3.60;36.20;;;;;;20599;6763;336002;-91
2022/03/06 07:08:03;;;;;;;13.83;12.43;;;3.80;35.90;;;;;;20600;6774;117809;-85
2022/03/06 07:10:39;;;;;;;25.03;22.43;;;4.00;35.80;;;;;;20518;6793;282454;-89
2022/03/06 07:13:20;;;;;;;17.20;15.50;;;4.00;35.70;;;;;;20582;6773;306117;-91
2022/03/06 07:16:16;;;;;;;;;;;;;;;;;;;;;
2022/03/06 07:18:42;;;;;;;16.77;15.17;;;4.30;35.20;;;;;;20408;6792;279985;-92
2022/03/06 07:21:40;;;;;;;16.90;15.40;;;4.50;35.30;;;;;;20159;6764;120303;-96
2022/03/06 07:24:16;;;;;;;15.30;13.10;;;4.50;35.20;;;;;;20745;6770;117086;-89
2022/03/06 07:26:52;;;;;;;16.63;15.13;;;4.40;36.40;;;;;;20581;6775;313367;-90
2022/03/06 07:29:27;;;;;;;14.40;12.83;;;4.60;35.40;;;;;;20848;6800;118039;-87
2022/03/06 07:32:03;;;;;;;16.17;14.27;;;4.70;35.10;;;;;;20836;6758;117381;-88
2022/03/06 07:34:41;;;;;;;16.53;15.03;;;4.60;35.20;;;;;;20665;6744;280025;-87
2022/03/06 07:37:18;;;;;;;17.10;15.57;;;5.20;34.70;;;;;;20552;6798;278704;-89
2022/03/06 07:39:53;;;;;;;15.40;13.90;;;5.20;34.70;;;;;;20914;6730;116970;-88
2022/03/06 07:42:28;;;;;;;14.00;12.60;;;5.20;34.40;;;;;;20813;6773;117509;-86
2022/03/06 07:45:04;;;;;;;13.57;12.17;;;5.10;34.80;;;;;;20833;6756;117784;-87
2022/03/06 07:47:40;;;;;;;14.37;12.87;;;4.90;34.80;;;;;;20740;6752;117565;-85
2022/03/06 07:50:15;;;;;;;17.15;15.38;;;4.80;34.90;;;;;;20628;6753;312000;-86
2022/03/06 07:52:51;;;;;;;15.13;13.50;;;5.00;35.00;;;;;;20864;6753;117203;-86
2022/03/06 07:55:28;;;;;;;16.87;13.53;;;5.10;34.80;;;;;;20891;6738;116453;-85
2022/03/06 07:58:13;;;;;;;14.73;12.93;;;5.00;35.00;;;;;;20745;6738;119141;-86
2022/03/06 08:00:41;;;;;;;17.40;15.80;;;5.30;35.40;;;;;;20625;6755;307237;-85
2022/03/06 08:03:16;;;;;;;17.13;15.17;;;5.20;35.30;;;;;;20946;6729;120246;-85
2022/03/06 08:05:52;;;;;;;16.10;13.60;;;5.40;34.90;;;;;;20923;6778;119783;-84
2022/03/06 08:08:28;;;;;;;17.23;15.63;;;5.70;34.60;;;;;;20489;6753;338310;-85
2022/03/06 08:11:05;;;;;;;17.55;16.05;;;6.20;34.00;;;;;;20626;6768;283987;-87
2022/03/06 08:13:40;;;;;;;17.13;15.53;;;6.20;34.00;;;;;;20634;6769;280248;-85
2022/03/06 08:16:16;;;;;;;14.60;13.20;;;6.60;33.30;;;;;;20849;6769;117806;-84
2022/03/06 08:18:51;;;;;;;14.83;13.33;;;6.70;33.40;;;;;;20844;6768;117531;-86
2022/03/06 08:21:27;;;;;;;16.43;13.10;;;6.60;33.60;;;;;;20864;6769;117403;-87
2022/03/06 08:24:02;;;;;;;14.73;13.27;;;6.40;33.50;;;;;;20871;6767;116318;-89
2022/03/06 08:26:38;;;;;;;14.87;13.33;;;6.30;33.60;;;;;;20795;6768;118274;-88
2022/03/06 08:29:14;;;;;;;13.83;12.43;;;6.20;33.70;;;;;;20865;6763;117003;-84
2022/03/06 08:31:51;;;;;;;16.67;15.18;;;6.10;33.80;;;;;;20666;6751;309848;-85
2022/03/06 08:34:26;;;;;;;14.90;13.33;;;6.40;33.60;;;;;;20856;6750;116798;-86
2022/03/06 08:37:02;;;;;;;14.07;12.67;;;6.50;33.20;;;;;;20756;6752;120423;-86
2022/03/06 08:39:37;;;;;;;16.03;14.30;;;6.40;33.00;;;;;;20858;6755;117778;-84
2022/03/06 08:42:13;;;;;;;16.80;15.30;;;6.30;33.20;;;;;;20599;6769;305621;-85
2022/03/06 08:44:48;;;;;;;15.23;13.73;;;6.60;33.10;;;;;;20859;6749;118904;-84
2022/03/06 08:47:24;;;;;;;14.37;12.97;;;6.70;32.80;;;;;;20722;6770;121442;-84
2022/03/06 08:50:00;;;;;;;14.83;13.33;;;6.70;32.80;;;;;;20840;6806;122752;-84
2022/03/06 08:52:35;;;;;;;20.10;18.30;;;6.60;33.10;;;;;;20653;6753;310740;-84
2022/03/06 08:55:11;;;;;;;35.00;31.33;;;6.90;32.40;;;;;;20641;6748;306713;-84
2022/03/06 08:57:48;;;;;;;17.73;16.03;;;7.30;31.50;;;;;;20536;6768;280450;-85
2022/03/06 09:00:23;;;;;;;19.33;17.53;;;7.70;30.80;;;;;;20652;6738;306811;-85
2022/03/06 09:02:59;;;;;;;17.57;15.87;;;8.00;30.40;;;;;;20900;6732;117006;-85
2022/03/06 09:05:40;;;;;;;18.13;16.53;;;8.10;30.80;;;;;;20620;6740;280155;-84
2022/03/06 09:08:12;;;;;;;17.45;15.88;;;8.10;30.10;;;;;;20527;6738;339113;-85
2022/03/06 09:10:48;;;;;;;16.98;15.38;;;8.30;30.00;;;;;;20648;6762;335287;-84
2022/03/06 09:13:23;;;;;;;17.27;15.77;;;8.50;29.70;;;;;;20623;6759;315382;-85
2022/03/06 09:16:09;;;;;;;15.30;13.77;;;8.60;29.70;;;;;;20885;6744;117087;-85
2022/03/06 09:18:34;;;;;;;19.35;17.65;;;8.60;30.00;;;;;;20354;6845;310729;-85
2022/03/06 09:21:11;;;;;;;16.10;14.60;;;8.70;30.00;;;;;;20772;6767;119924;-86
2022/03/06 09:23:48;;;;;;;14.47;13.17;;;8.70;30.00;;;;;;20810;6752;123710;-86
2022/03/06 09:26:24;;;;;;;13.73;12.23;;;8.40;29.90;;;;;;20803;6761;118083;-86
2022/03/06 09:28:59;;;;;;;14.93;13.53;;;8.20;30.00;;;;;;20882;6734;119153;-86
2022/03/06 09:31:44;;;;;;;16.33;14.82;;;8.10;30.20;;;;;;20695;6734;339687;-86
2022/03/06 09:34:12;;;;;;;16.00;14.60;;;8.30;30.40;;;;;;20687;6734;306580;-87
2022/03/06 09:36:47;;;;;;;14.50;13.10;;;8.70;30.00;;;;;;20832;6734;123911;-86
2022/03/06 09:39:23;;;;;;;15.00;13.50;;;8.80;29.60;;;;;;20816;6761;117550;-85
2022/03/06 09:41:59;;;;;;;14.53;13.07;;;8.60;29.50;;;;;;20812;6761;116383;-86
2022/03/06 09:44:36;;;;;;;13.60;12.20;;;8.50;29.70;;;;;;20825;6764;116652;-85
2022/03/06 09:47:11;;;;;;;20.13;18.23;;;8.30;29.70;;;;;;20540;6761;309433;-85
2022/03/06 09:49:48;;;;;;;13.77;12.37;;;8.40;29.30;;;;;;20903;6735;117145;-85
2022/03/06 09:52:23;;;;;;;17.13;15.60;;;8.50;29.30;;;;;;20596;6761;307288;-85
2022/03/06 09:54:59;;;;;;;19.63;17.73;;;8.70;29.00;;;;;;20785;6761;118183;-86
2022/03/06 09:57:34;;;;;;;15.10;13.70;;;8.80;29.20;;;;;;20527;6761;308371;-86
2022/03/06 10:00:10;;;;;;;18.35;16.73;;;9.10;28.40;;;;;;20688;6731;335687;-85
2022/03/06 10:02:53;;;;;;;13.73;12.40;;;9.40;28.10;;;;;;20882;6731;118262;-86
2022/03/06 10:05:34;;;;;;;15.88;14.48;;;9.50;28.40;;;;;;20503;6764;307324;-86
2022/03/06 10:08:30;;;;;;;14.07;12.73;;;9.60;27.60;;;;;;20606;6766;118224;-86
2022/03/06 10:11:06;;;;;;;14.75;13.35;;;9.60;27.50;;;;;;20507;6784;340348;-86
2022/03/06 10:13:42;;;;;;;13.47;12.17;;;9.60;27.50;;;;;;20755;6777;117933;-85
2022/03/06 10:16:17;;;;;;;11.97;10.87;;;9.50;27.50;;;;;;20759;6777;117270;-86
2022/03/06 10:18:54;;;;;;;14.85;13.38;;;9.30;27.50;;;;;;20697;6735;279948;-85
2022/03/06 10:21:29;;;;;;;13.23;11.90;;;9.30;27.50;;;;;;20864;6739;124217;-85
2022/03/06 10:24:06;;;;;;;14.80;13.50;;;9.30;27.70;;;;;;20602;6758;281338;-86
2022/03/06 10:26:42;;;;;;;14.90;13.60;;;9.40;27.60;;;;;;20550;6770;281060;-86
2022/03/06 10:29:19;;;;;;;12.17;11.03;;;9.80;27.30;;;;;;20791;6754;117878;-83
2022/03/06 10:32:04;;;;;;;;;;;;;;;;;;;;;
2022/03/06 10:34:34;;;;;;;14.10;12.90;;;9.80;26.10;;;;;;20683;6768;310716;-85
2022/03/06 10:37:13;;;;;;;12.40;11.40;;;10.10;25.50;;;;;;20563;6747;332321;-85
2022/03/06 10:39:58;;;;;;;;;;;;;;;;;;;;;
2022/03/06 10:42:24;;;;;;;12.48;11.48;;;10.30;24.90;;;;;;20587;6754;337798;-88
2022/03/06 10:45:10;;;;;;;;;;;;;;;;;;;;;
2022/03/06 10:47:46;;;;;;;12.85;11.80;;;10.60;23.50;;;;;;20287;6732;309307;-89
2022/03/06 10:50:22;;;;;;;11.98;10.98;;;10.80;22.50;;;;;;20357;6764;340550;-85
2022/03/06 10:52:57;;;;;;;10.47;9.53;;;10.80;22.40;;;;;;20701;6768;117608;-88
2022/03/06 10:55:33;;;;;;;11.70;10.70;;;10.40;22.90;;;;;;20526;6779;309471;-86
2022/03/06 10:58:09;;;;;;;18.45;17.00;;;10.50;22.90;;;;;;20456;6752;280123;-86
2022/03/06 11:00:45;;;;;;;13.77;12.77;;;10.70;22.20;;;;;;20534;6766;307174;-86
2022/03/06 11:03:24;;;;;;;29.17;26.70;;;10.70;22.20;;;;;;20488;6827;338498;-87
2022/03/06 11:05:56;;;;;;;13.38;12.37;;;10.70;22.40;;;;;;20611;6752;306906;-86
2022/03/06 11:08:32;;;;;;;11.77;10.77;;;10.80;22.40;;;;;;20445;6753;341717;-86
2022/03/06 11:11:08;;;;;;;12.80;11.80;;;10.90;22.30;;;;;;20572;6803;277693;-86
2022/03/06 11:13:43;;;;;;;15.30;14.00;;;10.90;22.20;;;;;;20599;6762;276750;-86
2022/03/06 11:16:35;;;;;;;13.27;12.17;;;11.00;22.90;;;;;;20562;6735;284341;-86
2022/03/06 11:22:23;;;;;;;13.63;12.27;;;11.20;23.00;;;;;;20027;6807;67763;-91
2022/03/06 11:25:05;;;;;;;;;;;;;;;;;;;;;
2022/03/06 11:27:33;;;;;;;12.95;11.90;;;11.00;23.30;;;;;;20343;6809;312260;-91
2022/03/06 11:30:25;;;;;;;;;;;;;;;;;;;;;
2022/03/06 11:32:46;;;;;;;10.97;9.97;;;10.70;22.90;;;;;;20680;6815;118618;-89
2022/03/06 11:35:23;;;;;;;11.67;10.57;;;10.30;23.30;;;;;;20817;6760;117581;-86
2022/03/06 11:38:00;;;;;;;13.57;12.30;;;10.10;23.70;;;;;;20645;6773;121648;-86
2022/03/06 11:41:18;;;;;;;11.17;10.07;;;9.90;24.80;;;;;;20798;6769;118832;-89
2022/03/06 11:43:48;;;;;;;;;;;;;;;;;;;;;
2022/03/06 11:46:16;;;;;;;10.57;9.57;;;9.70;24.90;;;;;;20666;6753;116871;-87
2022/03/06 11:48:52;;;;;;;10.07;9.27;;;9.40;24.60;;;;;;20749;6767;118071;-88
2022/03/06 11:51:27;;;;;;;13.10;11.98;;;9.10;24.70;;;;;;20578;6771;320744;-85
2022/03/06 11:54:03;;;;;;;11.27;10.13;;;9.10;24.70;;;;;;20817;6783;117062;-87
2022/03/06 11:56:46;;;;;;;10.20;9.30;;;9.00;24.80;;;;;;20372;6783;120859;-89
2022/03/06 11:59:24;;;;;;;11.90;10.70;;;8.90;24.90;;;;;;20850;6752;116966;-91
2022/03/06 12:02:07;;;;;;;10.93;9.93;;;8.80;25.20;;;;;;20848;6737;117216;-89
2022/03/06 12:04:44;;;;;;;11.83;10.73;;;8.70;25.30;;;;;;20713;6758;143791;-90
2022/03/06 12:07:17;;;;;;;10.70;9.70;;;8.70;25.30;;;;;;20740;6763;117450;-88
2022/03/06 12:09:54;;;;;;;15.73;14.23;;;8.80;25.40;;;;;;20859;6747;117946;-87
2022/03/06 12:12:29;;;;;;;11.85;10.75;;;9.10;25.40;;;;;;20685;6747;335148;-87
2022/03/06 12:15:14;;;;;;;11.17;10.17;;;9.10;25.40;;;;;;20831;6747;116815;-88
2022/03/06 12:17:50;;;;;;;12.77;11.77;;;9.40;25.50;;;;;;20374;6750;313620;-87
2022/03/06 12:20:26;;;;;;;12.47;11.37;;;9.80;24.70;;;;;;20923;6734;117577;-88
2022/03/06 12:23:08;;;;;;;11.73;10.73;;;10.00;24.00;;;;;;20744;6754;117510;-89
2022/03/06 12:25:38;;;;;;;13.13;12.02;;;10.10;24.20;;;;;;20564;6773;340410;-85
2022/03/06 12:28:13;;;;;;;13.02;12.02;;;10.30;24.00;;;;;;20489;6751;338427;-86
2022/03/06 12:30:49;;;;;;;13.77;12.65;;;10.60;23.70;;;;;;20687;6753;276134;-87
2022/03/06 12:33:24;;;;;;;11.53;10.47;;;10.90;23.80;;;;;;20864;6749;117787;-87
2022/03/06 12:36:14;;;;;;;12.10;10.93;;;10.90;23.70;;;;;;20886;6743;120241;-86
2022/03/06 12:38:55;;;;;;;10.90;9.90;;;10.50;23.70;;;;;;20750;6799;117694;-85
2022/03/06 12:41:41;;;;;;;;;;;;;;;;;;;;;
2022/03/06 12:44:07;;;;;;;12.90;11.80;;;10.00;23.60;;;;;;20526;6754;306576;-87
2022/03/06 12:46:52;;;;;;;;;;;;;;;;;;;;;
2022/03/06 12:49:27;;;;;;;12.07;10.97;;;10.00;23.40;;;;;;20784;6764;118015;-88
2022/03/06 12:51:54;;;;;;;13.00;11.90;;;9.70;24.60;;;;;;20494;6779;278268;-89
2022/03/06 12:54:33;;;;;;;12.00;11.00;;;9.70;24.50;;;;;;20773;6771;117881;-88
2022/03/06 12:57:05;;;;;;;11.57;10.50;;;9.70;24.70;;;;;;20722;6769;117977;-88
2022/03/06 12:59:46;;;;;;;12.00;11.00;;;9.60;24.90;;;;;;20574;6750;334948;-87
2022/03/06 13:02:19;;;;;;;11.77;10.77;;;9.80;25.10;;;;;;20584;6750;304204;-89
2022/03/06 13:04:56;;;;;;;12.50;11.40;;;10.20;24.10;;;;;;20618;6753;301759;-92
2022/03/06 13:07:33;;;;;;;12.90;11.70;;;10.40;23.10;;;;;;20529;6736;342208;-86
2022/03/06 13:10:07;;;;;;;13.40;12.20;;;10.50;22.60;;;;;;20643;6736;334612;-87
2022/03/06 13:12:43;;;;;;;14.10;12.90;;;10.50;22.90;;;;;;20444;6750;117399;-87
2022/03/06 13:15:22;;;;;;;11.10;10.10;;;10.30;23.20;;;;;;20794;6736;117556;-90
2022/03/06 13:18:05;;;;;;;10.23;9.43;;;10.00;23.40;;;;;;20666;6751;118290;-89
2022/03/06 13:20:40;;;;;;;11.83;10.93;;;9.80;24.50;;;;;;20646;6736;281114;-89
2022/03/06 13:23:19;;;;;;;11.97;11.07;;;9.90;24.50;;;;;;20680;6736;310005;-90
2022/03/06 14:12:07;;;;;;;17.20;15.60;;;11.10;21.40;;;;;;21262;6571;106420;-93
2022/03/06 14:14:32;;;;;;;10.87;9.97;;;10.90;21.70;;;;;;20980;6756;117195;-92
2022/03/06 14:17:01;;;;;;;11.20;10.20;;;10.70;22.10;;;;;;20964;6745;118362;-89
2022/03/06 14:19:27;;;;;;;11.13;10.27;;;10.50;22.50;;;;;;20607;6818;307579;-90